Time,TemperatureF,DewpointF,PressureIn,WindDirection,WindDirectionDegrees,WindSpeedMPH,WindSpeedGustMPH,Humidity,HourlyPrecipIn,Conditions,Clouds,dailyrainin,SoftwareType,DateUTC
2013-02-20 00:00:00,76.5,51.0,27.05,SSE,148,7.6,7.6,32,0.00,,---,0.00,VWS V14.01,2013-02-20 06:00:00,
2013-02-20 00:05:00,76.5,51.0,27.05,ESE,108,10.5,10.5,32,0.00,,---,0.00,VWS V14.01,2013-02-20 06:05:00,
2013-02-20 00:10:00,76.5,51.0,27.05,East,79,6.3,10.1,32,0.00,,---,0.00,VWS V14.01,2013-02-20 06:10:00,
2013-02-20 00:15:00,76.5,51.0,27.05,SSE,147,6.3,10.1,32,0.00,,---,0.00,VWS V14.01,2013-02-20 06:15:00,
2013-02-20 00:20:00,76.5,51.0,27.05,SE,128,7.2,7.2,32,0.00,,---,0.00,VWS V14.01,2013-02-20 06:20:00,
2013-02-20 00:25:00,76.5,51.0,27.05,SSE,147,5.8,8.7,32,0.00,,---,0.00,VWS V14.01,2013-02-20 06:25:00,
2013-02-20 00:30:00,76.5,51.0,27.05,ESE,103,5.4,6.3,32,0.00,,---,0.00,VWS V14.01,2013-02-20 06:30:00,
2013-02-20 00:35:00,76.5,51.0,27.05,East,100,8.1,8.1,32,0.00,,---,0.00,VWS V14.01,2013-02-20 06:35:00,
2013-02-20 00:40:00,76.5,51.0,27.05,SE,127,8.7,8.7,32,0.00,,---,0.00,VWS V14.01,2013-02-20 06:40:00,
2013-02-20 00:45:00,76.5,51.0,27.05,SE,125,11.0,11.0,32,0.00,,---,0.00,VWS V14.01,2013-02-20 06:45:00,
2013-02-20 00:50:00,76.5,51.0,27.05,SE,131,10.1,11.0,32,0.00,,---,0.00,VWS V14.01,2013-02-20 06:50:00,
2013-02-20 00:55:00,76.5,51.0,27.02,SE,128,6.3,10.1,32,0.00,,---,0.00,VWS V14.01,2013-02-20 06:55:00,
2013-02-20 01:00:00,76.5,51.0,27.02,East,93,6.3,6.3,32,0.00,,---,0.00,VWS V14.01,2013-02-20 07:00:00,
2013-02-20 01:05:00,76.5,51.0,27.02,ESE,112,8.1,8.7,32,0.00,,---,0.00,VWS V14.01,2013-02-20 07:05:00,
2013-02-20 01:10:00,76.5,51.0,27.02,East,82,8.3,8.7,32,0.00,,---,0.00,VWS V14.01,2013-02-20 07:10:00,
2013-02-20 01:15:00,76.5,51.0,27.02,SE,128,8.7,9.2,32,0.00,,---,0.00,VWS V14.01,2013-02-20 07:15:00,
2013-02-20 01:20:00,76.5,51.0,27.02,ESE,102,10.1,10.1,32,0.00,,---,0.00,VWS V14.01,2013-02-20 07:20:00,
2013-02-20 01:25:00,76.5,51.0,27.02,ESE,116,7.2,7.2,32,0.00,,---,0.00,VWS V14.01,2013-02-20 07:25:00,
2013-02-20 01:30:00,76.5,51.0,27.02,ENE,77,7.6,7.6,32,0.00,,---,0.00,VWS V14.01,2013-02-20 07:30:00,
2013-02-20 01:35:00,76.5,51.0,27.02,SE,126,4.9,11.0,32,0.00,,---,0.00,VWS V14.01,2013-02-20 07:35:00,
2013-02-20 01:40:00,76.5,51.0,27.02,SE,130,5.8,8.7,32,0.00,,---,0.00,VWS V14.01,2013-02-20 07:40:00,
2013-02-20 01:45:00,76.5,51.0,27.02,ESE,119,5.8,11.0,32,0.00,,---,0.00,VWS V14.01,2013-02-20 07:45:00,
2013-02-20 01:50:00,76.5,51.0,27.02,South,175,8.1,8.1,32,0.00,,---,0.00,VWS V14.01,2013-02-20 07:50:00,
2013-02-20 01:55:00,76.5,51.0,27.02,ESE,108,5.8,7.6,32,0.00,,---,0.00,VWS V14.01,2013-02-20 07:55:00,
2013-02-20 02:00:00,76.5,51.0,27.02,East,97,8.1,8.1,32,0.00,,---,0.00,VWS V14.01,2013-02-20 08:00:00,
2013-02-20 02:05:00,76.5,51.0,27.02,ESE,107,4.9,4.9,32,0.00,,---,0.00,VWS V14.01,2013-02-20 08:05:00,
2013-02-20 02:10:00,76.5,51.0,27.02,SE,140,4.9,6.3,32,0.00,,---,0.00,VWS V14.01,2013-02-20 08:10:00,
2013-02-20 02:15:00,76.5,51.0,27.02,ENE,78,15.4,15.4,32,0.00,,---,0.00,VWS V14.01,2013-02-20 08:15:00,
2013-02-20 02:20:00,76.5,51.0,27.02,ESE,110,11.0,11.0,32,0.00,,---,0.00,VWS V14.01,2013-02-20 08:20:00,
2013-02-20 02:25:00,76.5,51.0,27.02,East,92,5.8,8.3,32,0.00,,---,0.00,VWS V14.01,2013-02-20 08:25:00,
2013-02-20 02:30:00,76.5,51.0,27.02,SSE,149,5.4,14.5,32,0.00,,---,0.00,VWS V14.01,2013-02-20 08:30:00,
2013-02-20 02:35:00,76.5,51.0,27.02,SE,144,5.4,5.4,32,0.00,,---,0.00,VWS V14.01,2013-02-20 08:35:00,
2013-02-20 02:40:00,76.5,51.0,26.99,ESE,105,8.3,8.3,32,0.00,,---,0.00,VWS V14.01,2013-02-20 08:40:00,
2013-02-20 02:45:00,76.5,51.0,26.99,East,87,6.3,6.3,32,0.00,,---,0.00,VWS V14.01,2013-02-20 08:45:00,
2013-02-20 02:50:00,76.5,51.0,26.99,East,79,4.0,6.3,32,0.00,,---,0.00,VWS V14.01,2013-02-20 08:50:00,
2013-02-20 02:55:00,76.5,51.0,26.99,ESE,119,6.3,6.3,32,0.00,,---,0.00,VWS V14.01,2013-02-20 08:55:00,
2013-02-20 03:00:00,76.5,51.0,26.99,SE,130,8.3,8.3,32,0.00,,---,0.00,VWS V14.01,2013-02-20 09:00:00,
2013-02-20 03:05:00,76.5,51.0,26.99,East,92,7.6,7.6,32,0.00,,---,0.00,VWS V14.01,2013-02-20 09:05:00,
2013-02-20 03:10:00,76.5,51.0,26.99,East,81,5.8,6.3,32,0.00,,---,0.00,VWS V14.01,2013-02-20 09:10:00,
2013-02-20 03:15:00,76.5,51.0,26.99,SSE,154,8.1,8.7,32,0.00,,---,0.00,VWS V14.01,2013-02-20 09:15:00,
2013-02-20 03:20:00,76.5,51.0,26.99,SE,131,8.1,8.7,32,0.00,,---,0.00,VWS V14.01,2013-02-20 09:20:00,
2013-02-20 03:25:00,76.5,51.0,26.99,ESE,119,11.4,11.4,32,0.00,,---,0.00,VWS V14.01,2013-02-20 09:25:00,
2013-02-20 03:30:00,76.5,51.0,26.99,SE,131,6.3,6.3,32,0.00,,---,0.00,VWS V14.01,2013-02-20 09:30:00,
2013-02-20 03:35:00,76.5,51.0,26.99,SE,125,8.1,8.1,32,0.00,,---,0.00,VWS V14.01,2013-02-20 09:35:00,
2013-02-20 03:40:00,76.5,51.0,26.99,South,169,11.0,11.0,32,0.00,,---,0.00,VWS V14.01,2013-02-20 09:40:00,
2013-02-20 03:45:00,76.5,51.0,26.99,ESE,110,8.3,8.3,32,0.00,,---,0.00,VWS V14.01,2013-02-20 09:45:00,
2013-02-20 03:50:00,76.5,51.0,26.99,East,91,5.8,5.8,32,0.00,,---,0.00,VWS V14.01,2013-02-20 09:50:00,
2013-02-20 03:55:00,76.5,51.0,26.99,SE,144,15.0,15.0,32,0.00,,---,0.00,VWS V14.01,2013-02-20 09:55:00,
2013-02-20 04:00:00,76.5,51.0,26.99,SE,135,12.3,12.3,32,0.00,,---,0.00,VWS V14.01,2013-02-20 10:00:00,
2013-02-20 04:05:00,76.5,51.0,26.99,South,177,4.0,4.0,32,0.00,,---,0.00,VWS V14.01,2013-02-20 10:05:00,
2013-02-20 04:10:00,76.5,51.0,26.99,ESE,120,8.3,8.3,32,0.00,,---,0.00,VWS V14.01,2013-02-20 10:10:00,
2013-02-20 04:15:00,76.5,51.0,26.99,SSE,161,10.1,10.1,32,0.00,,---,0.00,VWS V14.01,2013-02-20 10:15:00,
2013-02-20 04:20:00,76.5,51.0,26.99,ESE,120,4.0,8.1,32,0.00,,---,0.00,VWS V14.01,2013-02-20 10:20:00,
2013-02-20 04:25:00,76.5,51.0,26.99,SSE,151,4.5,7.2,32,0.00,,---,0.00,VWS V14.01,2013-02-20 10:25:00,
2013-02-20 04:30:00,76.5,51.0,26.99,SSE,163,5.8,5.8,32,0.00,,---,0.00,VWS V14.01,2013-02-20 10:30:00,
2013-02-20 04:35:00,76.5,51.0,26.99,SE,140,2.7,2.7,32,0.00,,---,0.00,VWS V14.01,2013-02-20 10:35:00,
2013-02-20 04:40:00,76.5,51.0,27.02,ESE,114,5.4,5.4,32,0.00,,---,0.00,VWS V14.01,2013-02-20 10:40:00,
2013-02-20 04:45:00,76.5,51.0,27.02,ESE,116,3.1,4.0,32,0.00,,---,0.00,VWS V14.01,2013-02-20 10:45:00,
2013-02-20 04:50:00,76.5,51.0,27.02,SE,132,5.8,6.7,32,0.00,,---,0.00,VWS V14.01,2013-02-20 10:50:00,
2013-02-20 04:55:00,76.5,51.0,26.99,SE,131,2.7,3.1,32,0.00,,---,0.00,VWS V14.01,2013-02-20 10:55:00,
2013-02-20 05:00:00,76.5,51.0,26.99,SSE,163,8.7,8.7,32,0.00,,---,0.00,VWS V14.01,2013-02-20 11:00:00,
2013-02-20 05:05:00,76.5,51.0,26.99,ESE,113,2.7,2.7,32,0.00,,---,0.00,VWS V14.01,2013-02-20 11:05:00,
2013-02-20 05:10:00,76.5,51.0,26.99,South,189,10.1,10.1,32,0.00,,---,0.00,VWS V14.01,2013-02-20 11:10:00,
2013-02-20 05:15:00,76.5,51.0,26.99,NNE,33,3.6,4.9,32,0.00,,---,0.00,VWS V14.01,2013-02-20 11:15:00,
2013-02-20 05:20:00,76.5,51.0,26.99,SSE,164,5.4,5.4,32,0.00,,---,0.00,VWS V14.01,2013-02-20 11:20:00,
2013-02-20 05:25:00,76.5,51.0,26.99,South,182,5.8,5.8,32,0.00,,---,0.00,VWS V14.01,2013-02-20 11:25:00,
2013-02-20 05:30:00,76.5,51.0,26.99,SE,144,2.7,3.6,32,0.00,,---,0.00,VWS V14.01,2013-02-20 11:30:00,
2013-02-20 05:35:00,76.5,51.0,26.99,North,7,9.2,9.2,32,0.00,,---,0.00,VWS V14.01,2013-02-20 11:35:00,
2013-02-20 05:40:00,76.5,51.0,27.02,SSE,156,5.4,8.7,32,0.00,,---,0.00,VWS V14.01,2013-02-20 11:40:00,
2013-02-20 05:45:00,76.5,51.0,27.02,SE,133,4.0,4.0,32,0.00,,---,0.00,VWS V14.01,2013-02-20 11:45:00,
2013-02-20 05:50:00,76.5,51.0,27.02,East,98,10.5,10.5,32,0.00,,---,0.00,VWS V14.01,2013-02-20 11:50:00,
2013-02-20 05:55:00,76.5,51.0,27.02,ESE,122,11.0,13.2,32,0.00,,---,0.00,VWS V14.01,2013-02-20 11:55:00,
2013-02-20 06:00:00,76.5,51.0,27.02,ESE,115,8.3,17.4,32,0.00,,---,0.00,VWS V14.01,2013-02-20 12:00:00,
2013-02-20 06:05:00,76.5,51.0,27.02,SSE,155,10.5,13.2,32,0.00,,---,0.00,VWS V14.01,2013-02-20 12:05:00,
2013-02-20 06:10:00,76.5,51.0,27.02,SSE,147,7.6,10.1,32,0.00,,---,0.00,VWS V14.01,2013-02-20 12:10:00,
2013-02-20 06:15:00,76.5,51.0,27.02,East,90,10.1,10.1,32,0.00,,---,0.00,VWS V14.01,2013-02-20 12:15:00,
2013-02-20 06:20:00,76.5,51.0,27.02,SE,136,8.7,17.4,32,0.00,,---,0.00,VWS V14.01,2013-02-20 12:20:00,
2013-02-20 06:25:00,76.5,51.0,27.02,SE,126,6.3,6.3,32,0.00,,---,0.00,VWS V14.01,2013-02-20 12:25:00,
2013-02-20 06:30:00,76.5,51.0,27.02,SE,128,7.2,8.1,32,0.00,,---,0.00,VWS V14.01,2013-02-20 12:30:00,
2013-02-20 06:35:00,76.5,51.0,27.02,ESE,121,11.0,11.4,32,0.00,,---,0.00,VWS V14.01,2013-02-20 12:35:00,
2013-02-20 06:40:00,76.5,51.0,27.02,SSE,156,5.8,8.1,32,0.00,,---,0.00,VWS V14.01,2013-02-20 12:40:00,
2013-02-20 06:45:00,76.5,51.0,27.02,SE,135,5.8,5.8,32,0.00,,---,0.00,VWS V14.01,2013-02-20 12:45:00,
2013-02-20 06:50:00,76.5,51.0,27.02,SSE,158,6.3,6.3,32,0.00,,---,0.00,VWS V14.01,2013-02-20 12:50:00,
2013-02-20 06:55:00,76.5,51.0,27.02,SE,124,3.6,3.6,32,0.00,,---,0.00,VWS V14.01,2013-02-20 12:55:00,
2013-02-20 07:00:00,76.5,51.0,27.02,ESE,120,7.6,7.6,32,0.00,,---,0.00,VWS V14.01,2013-02-20 13:00:00,
2013-02-20 07:05:00,76.5,51.0,27.02,East,81,5.4,8.3,32,0.00,,---,0.00,VWS V14.01,2013-02-20 13:05:00,
2013-02-20 07:10:00,76.5,51.0,27.02,SE,138,5.8,5.8,32,0.00,,---,0.00,VWS V14.01,2013-02-20 13:10:00,
2013-02-20 07:15:00,76.5,51.0,27.02,ESE,116,10.1,10.1,32,0.00,,---,0.00,VWS V14.01,2013-02-20 13:15:00,
2013-02-20 07:20:00,76.5,51.0,27.02,ESE,110,12.8,12.8,32,0.00,,---,0.00,VWS V14.01,2013-02-20 13:20:00,
2013-02-20 07:25:00,76.5,51.0,27.02,ENE,69,5.4,8.7,32,0.00,,---,0.00,VWS V14.01,2013-02-20 13:25:00,
2013-02-20 07:30:00,76.5,51.0,27.02,ESE,122,8.1,15.4,32,0.00,,---,0.00,VWS V14.01,2013-02-20 13:30:00,
2013-02-20 07:35:00,76.5,51.0,27.02,ESE,120,5.4,13.2,32,0.00,,---,0.00,VWS V14.01,2013-02-20 13:35:00,
2013-02-20 07:40:00,76.5,51.0,27.02,ESE,109,5.8,13.6,32,0.00,,---,0.00,VWS V14.01,2013-02-20 13:40:00,
2013-02-20 07:45:00,76.5,51.0,27.02,SE,138,11.0,11.9,32,0.00,,---,0.00,VWS V14.01,2013-02-20 13:45:00,
2013-02-20 07:50:00,76.5,51.0,27.02,SSE,154,8.3,8.3,32,0.00,,---,0.00,VWS V14.01,2013-02-20 13:50:00,
2013-02-20 07:55:00,76.5,51.0,27.02,SE,124,8.7,10.5,32,0.00,,---,0.00,VWS V14.01,2013-02-20 13:55:00,
2013-02-20 08:00:00,76.5,51.0,27.02,SSE,160,11.4,19.7,32,0.00,,---,0.00,VWS V14.01,2013-02-20 14:00:00,
2013-02-20 08:05:00,76.5,51.0,27.02,SE,130,4.9,5.8,32,0.00,,---,0.00,VWS V14.01,2013-02-20 14:05:00,
2013-02-20 08:10:00,76.5,51.0,27.05,SE,132,8.1,8.7,32,0.00,,---,0.00,VWS V14.01,2013-02-20 14:10:00,
2013-02-20 08:15:00,76.5,51.0,27.05,East,98,10.5,10.5,32,0.00,,---,0.00,VWS V14.01,2013-02-20 14:15:00,
2013-02-20 08:20:00,76.5,51.0,27.05,SE,133,8.1,10.5,32,0.00,,---,0.00,VWS V14.01,2013-02-20 14:20:00,
2013-02-20 08:25:00,76.5,51.0,27.02,SSW,206,5.4,6.3,32,0.00,,---,0.00,VWS V14.01,2013-02-20 14:25:00,
2013-02-20 08:30:00,76.5,51.0,27.02,West,273,6.7,13.2,32,0.00,,---,0.00,VWS V14.01,2013-02-20 14:30:00,
2013-02-20 08:35:00,76.5,51.0,27.02,SE,137,5.8,6.3,32,0.00,,---,0.00,VWS V14.01,2013-02-20 14:35:00,
2013-02-20 08:40:00,76.5,51.0,27.05,East,92,10.1,13.2,32,0.00,,---,0.00,VWS V14.01,2013-02-20 14:40:00,
2013-02-20 08:45:00,76.5,51.0,27.05,ENE,69,4.9,7.6,32,0.00,,---,0.00,VWS V14.01,2013-02-20 14:45:00,
2013-02-20 08:50:00,76.5,51.0,27.05,ESE,114,3.6,3.6,32,0.00,,---,0.00,VWS V14.01,2013-02-20 14:50:00,
2013-02-20 08:55:00,76.5,51.0,27.02,SE,135,2.7,10.1,32,0.00,,---,0.00,VWS V14.01,2013-02-20 14:55:00,
2013-02-20 09:00:00,76.5,51.0,27.02,ESE,107,7.6,7.6,32,0.00,,---,0.00,VWS V14.01,2013-02-20 15:00:00,
2013-02-20 09:05:00,76.5,51.0,27.02,East,98,8.7,8.7,32,0.00,,---,0.00,VWS V14.01,2013-02-20 15:05:00,
2013-02-20 09:10:00,76.5,51.0,27.05,ENE,64,17.4,17.4,32,0.00,,---,0.00,VWS V14.01,2013-02-20 15:10:00,
2013-02-20 09:15:00,76.5,51.0,27.05,ESE,106,7.6,7.6,32,0.00,,---,0.00,VWS V14.01,2013-02-20 15:15:00,
2013-02-20 09:20:00,76.5,51.0,27.05,NNE,19,5.8,6.3,32,0.00,,---,0.00,VWS V14.01,2013-02-20 15:20:00,
2013-02-20 09:25:00,76.5,51.0,27.05,SSE,165,10.5,10.5,32,0.00,,---,0.00,VWS V14.01,2013-02-20 15:25:00,
2013-02-20 09:30:00,76.5,51.0,27.05,South,178,5.4,5.4,32,0.00,,---,0.00,VWS V14.01,2013-02-20 15:30:00,
2013-02-20 09:35:00,76.5,51.0,27.05,South,189,4.0,8.7,32,0.00,,---,0.00,VWS V14.01,2013-02-20 15:35:00,
2013-02-20 09:40:00,76.5,51.0,27.05,East,93,5.4,5.4,32,0.00,,---,0.00,VWS V14.01,2013-02-20 15:40:00,
2013-02-20 09:45:00,76.5,51.0,27.05,SE,145,7.6,11.0,32,0.00,,---,0.00,VWS V14.01,2013-02-20 15:45:00,
2013-02-20 09:50:00,76.5,51.0,27.05,SE,139,4.0,10.5,32,0.00,,---,0.00,VWS V14.01,2013-02-20 15:50:00,
2013-02-20 09:55:00,76.5,51.0,27.05,SSE,149,6.3,9.6,32,0.00,,---,0.00,VWS V14.01,2013-02-20 15:55:00,
2013-02-20 10:00:00,76.5,51.0,27.05,ESE,118,2.7,5.4,32,0.00,,---,0.00,VWS V14.01,2013-02-20 16:00:00,
2013-02-20 10:05:00,76.5,51.0,27.05,East,101,5.4,5.8,32,0.00,,---,0.00,VWS V14.01,2013-02-20 16:05:00,
2013-02-20 10:10:00,76.5,51.0,27.05,SE,144,5.8,5.8,32,0.00,,---,0.00,VWS V14.01,2013-02-20 16:10:00,
2013-02-20 10:15:00,76.5,51.0,27.05,SW,228,5.8,8.1,32,0.00,,---,0.00,VWS V14.01,2013-02-20 16:15:00,
2013-02-20 10:20:00,76.5,51.0,27.05,ESE,108,10.5,10.5,32,0.00,,---,0.00,VWS V14.01,2013-02-20 16:20:00,
2013-02-20 10:25:00,76.5,51.0,27.05,SE,129,10.5,15.0,32,0.00,,---,0.00,VWS V14.01,2013-02-20 16:25:00,
2013-02-20 10:30:00,76.5,51.0,27.05,ESE,102,3.6,3.6,32,0.00,,---,0.00,VWS V14.01,2013-02-20 16:30:00,
2013-02-20 10:35:00,76.5,51.0,27.05,ESE,102,4.0,4.0,32,0.00,,---,0.00,VWS V14.01,2013-02-20 16:35:00,
2013-02-20 10:40:00,76.5,51.0,27.05,SE,145,2.7,4.0,32,0.00,,---,0.00,VWS V14.01,2013-02-20 16:40:00,
2013-02-20 10:45:00,76.5,51.0,27.05,SE,139,8.7,10.1,32,0.00,,---,0.00,VWS V14.01,2013-02-20 16:45:00,
2013-02-20 10:50:00,76.5,51.0,27.05,South,178,6.7,6.7,32,0.00,,---,0.00,VWS V14.01,2013-02-20 16:50:00,
2013-02-20 10:55:00,76.5,51.0,27.05,NE,50,4.0,4.0,32,0.00,,---,0.00,VWS V14.01,2013-02-20 16:55:00,
2013-02-20 11:00:00,76.5,51.0,27.05,SE,137,5.8,7.2,32,0.00,,---,0.00,VWS V14.01,2013-02-20 17:00:00,
2013-02-20 11:05:00,76.5,51.0,27.05,North,0,8.1,8.1,32,0.00,,---,0.00,VWS V14.01,2013-02-20 17:05:00,
2013-02-20 11:10:00,76.5,51.0,27.05,ESE,123,5.8,5.8,32,0.00,,---,0.00,VWS V14.01,2013-02-20 17:10:00,
2013-02-20 11:15:00,76.5,51.0,27.05,NE,52,5.4,5.8,32,0.00,,---,0.00,VWS V14.01,2013-02-20 17:15:00,
2013-02-20 11:20:00,76.5,51.0,27.05,SE,146,5.8,5.8,32,0.00,,---,0.00,VWS V14.01,2013-02-20 17:20:00,
2013-02-20 11:25:00,76.5,51.0,27.05,SSE,150,4.9,6.3,32,0.00,,---,0.00,VWS V14.01,2013-02-20 17:25:00,
2013-02-20 11:30:00,76.5,51.0,27.05,NE,51,8.3,8.3,32,0.00,,---,0.00,VWS V14.01,2013-02-20 17:30:00,
2013-02-20 11:35:00,76.5,51.0,27.05,SE,125,5.4,10.1,32,0.00,,---,0.00,VWS V14.01,2013-02-20 17:35:00,
2013-02-20 11:40:00,76.5,51.0,27.05,East,98,3.6,5.4,32,0.00,,---,0.00,VWS V14.01,2013-02-20 17:40:00,
2013-02-20 11:45:00,76.5,51.0,27.05,SSE,153,4.0,4.0,32,0.00,,---,0.00,VWS V14.01,2013-02-20 17:45:00,
2013-02-20 11:50:00,76.5,51.0,27.05,NNE,32,3.1,3.1,32,0.00,,---,0.00,VWS V14.01,2013-02-20 17:50:00,
2013-02-20 11:55:00,76.5,51.0,27.05,East,91,5.4,5.4,32,0.00,,---,0.00,VWS V14.01,2013-02-20 17:55:00,
2013-02-20 12:00:00,76.5,51.0,27.05,East,88,4.0,4.0,32,0.00,,---,0.00,VWS V14.01,2013-02-20 18:00:00,
2013-02-20 12:05:00,76.5,51.0,27.05,West,270,3.1,5.4,32,0.00,,---,0.00,VWS V14.01,2013-02-20 18:05:00,
2013-02-20 12:10:00,76.5,51.0,27.02,SE,144,8.7,8.7,32,0.00,,---,0.00,VWS V14.01,2013-02-20 18:10:00,
2013-02-20 12:15:00,76.5,51.0,27.02,South,169,4.9,8.7,32,0.00,,---,0.00,VWS V14.01,2013-02-20 18:15:00,
2013-02-20 12:20:00,76.5,51.0,27.02,East,79,10.1,10.1,32,0.00,,---,0.00,VWS V14.01,2013-02-20 18:20:00,
2013-02-20 12:25:00,76.5,51.0,27.02,SE,131,5.8,10.5,32,0.00,,---,0.00,VWS V14.01,2013-02-20 18:25:00,
2013-02-20 12:30:00,76.5,51.0,27.02,ENE,77,12.3,12.3,32,0.00,,---,0.00,VWS V14.01,2013-02-20 18:30:00,
2013-02-20 12:35:00,76.5,51.0,27.02,East,88,4.9,4.9,32,0.00,,---,0.00,VWS V14.01,2013-02-20 18:35:00,
2013-02-20 12:40:00,76.5,51.0,27.02,ESE,122,7.6,7.6,32,0.00,,---,0.00,VWS V14.01,2013-02-20 18:40:00,
2013-02-20 12:45:00,76.5,51.0,27.02,ENE,75,8.3,8.3,32,0.00,,---,0.00,VWS V14.01,2013-02-20 18:45:00,
2013-02-20 12:50:00,76.5,51.0,27.02,East,87,10.1,15.9,32,0.00,,---,0.00,VWS V14.01,2013-02-20 18:50:00,
2013-02-20 12:55:00,76.5,51.0,27.02,NE,52,16.8,18.8,32,0.00,,---,0.00,VWS V14.01,2013-02-20 18:55:00,
2013-02-20 13:00:00,76.5,51.0,27.02,East,96,11.0,11.0,32,0.00,,---,0.00,VWS V14.01,2013-02-20 19:00:00,
2013-02-20 13:05:00,76.5,51.0,27.02,ESE,120,5.4,5.4,32,0.00,,---,0.00,VWS V14.01,2013-02-20 19:05:00,
2013-02-20 13:10:00,76.5,51.0,26.99,SE,127,10.1,17.4,32,0.00,,---,0.00,VWS V14.01,2013-02-20 19:10:00,
2013-02-20 13:15:00,76.5,51.0,26.99,ESE,116,12.8,12.8,32,0.00,,---,0.00,VWS V14.01,2013-02-20 19:15:00,
2013-02-20 13:20:00,76.5,51.0,26.99,SSE,156,5.4,5.4,32,0.00,,---,0.00,VWS V14.01,2013-02-20 19:20:00,
2013-02-20 13:25:00,76.5,51.0,27.02,SE,141,3.6,4.0,32,0.00,,---,0.00,VWS V14.01,2013-02-20 19:25:00,
2013-02-20 13:30:00,76.5,51.0,27.02,ESE,122,7.6,7.6,32,0.00,,---,0.00,VWS V14.01,2013-02-20 19:30:00,
2013-02-20 13:35:00,76.5,51.0,27.02,SE,130,8.1,8.1,32,0.00,,---,0.00,VWS V14.01,2013-02-20 19:35:00,
2013-02-20 13:40:00,76.5,51.0,26.99,SE,146,10.1,15.0,32,0.00,,---,0.00,VWS V14.01,2013-02-20 19:40:00,
2013-02-20 13:45:00,76.5,51.0,26.99,ESE,115,4.9,5.8,32,0.00,,---,0.00,VWS V14.01,2013-02-20 19:45:00,
2013-02-20 13:50:00,76.5,51.0,26.99,ESE,106,13.2,13.2,32,0.00,,---,0.00,VWS V14.01,2013-02-20 19:50:00,
2013-02-20 13:55:00,76.5,51.0,26.99,ESE,119,7.2,7.6,32,0.00,,---,0.00,VWS V14.01,2013-02-20 19:55:00,
2013-02-20 14:00:00,76.5,51.0,26.99,East,82,7.6,7.6,32,0.00,,---,0.00,VWS V14.01,2013-02-20 20:00:00,
2013-02-20 14:05:00,76.5,51.0,26.99,SE,132,13.2,14.1,32,0.00,,---,0.00,VWS V14.01,2013-02-20 20:05:00,
2013-02-20 14:10:00,76.5,51.0,26.99,ENE,65,14.1,14.1,32,0.00,,---,0.00,VWS V14.01,2013-02-20 20:10:00,
2013-02-20 14:15:00,76.5,51.0,26.99,ENE,74,3.6,10.5,32,0.00,,---,0.00,VWS V14.01,2013-02-20 20:15:00,
2013-02-20 14:20:00,76.5,51.0,26.99,East,86,7.6,8.7,32,0.00,,---,0.00,VWS V14.01,2013-02-20 20:20:00,
2013-02-20 14:25:00,76.5,51.0,26.99,ENE,69,6.3,13.6,32,0.00,,---,0.00,VWS V14.01,2013-02-20 20:25:00,
2013-02-20 14:30:00,76.5,51.0,26.99,ENE,65,3.6,11.9,32,0.00,,---,0.00,VWS V14.01,2013-02-20 20:30:00,
2013-02-20 14:35:00,76.5,51.0,26.99,ESE,115,5.4,10.5,32,0.00,,---,0.00,VWS V14.01,2013-02-20 20:35:00,
2013-02-20 14:40:00,76.5,51.0,26.99,ESE,104,5.4,7.6,32,0.00,,---,0.00,VWS V14.01,2013-02-20 20:40:00,
2013-02-20 14:45:00,76.5,51.0,26.99,SE,128,5.4,10.1,32,0.00,,---,0.00,VWS V14.01,2013-02-20 20:45:00,
2013-02-20 14:50:00,76.5,51.0,26.99,NNE,23,6.3,10.5,32,0.00,,---,0.00,VWS V14.01,2013-02-20 20:50:00,
2013-02-20 14:55:00,76.5,51.0,26.99,NE,48,5.8,15.4,32,0.00,,---,0.00,VWS V14.01,2013-02-20 20:55:00,
2013-02-20 15:00:00,76.5,51.0,26.99,East,80,5.8,12.8,32,0.00,,---,0.00,VWS V14.01,2013-02-20 21:00:00,
2013-02-20 15:05:00,76.5,51.0,26.99,East,79,15.0,15.0,32,0.00,,---,0.00,VWS V14.01,2013-02-20 21:05:00,
2013-02-20 15:10:00,76.5,51.0,26.99,East,86,8.7,10.5,32,0.00,,---,0.00,VWS V14.01,2013-02-20 21:10:00,
2013-02-20 15:15:00,76.5,51.0,26.99,East,95,8.3,10.1,32,0.00,,---,0.00,VWS V14.01,2013-02-20 21:15:00,
2013-02-20 15:20:00,76.5,51.0,26.99,East,87,6.3,10.1,32,0.00,,---,0.00,VWS V14.01,2013-02-20 21:20:00,
2013-02-20 15:25:00,76.5,51.0,26.99,ESE,110,13.2,15.9,32,0.00,,---,0.00,VWS V14.01,2013-02-20 21:25:00,
2013-02-20 15:30:00,76.5,51.0,26.99,SSE,165,10.5,10.5,32,0.00,,---,0.00,VWS V14.01,2013-02-20 21:30:00,
2013-02-20 15:35:00,76.5,51.0,26.99,SSE,151,7.6,7.6,32,0.00,,---,0.00,VWS V14.01,2013-02-20 21:35:00,
2013-02-20 15:40:00,76.5,51.0,26.99,ESE,115,5.8,10.1,32,0.00,,---,0.00,VWS V14.01,2013-02-20 21:40:00,
2013-02-20 15:45:00,76.5,51.0,26.99,SSE,149,6.7,6.7,32,0.00,,---,0.00,VWS V14.01,2013-02-20 21:45:00,
2013-02-20 15:50:00,76.5,51.0,26.99,East,92,10.1,10.1,32,0.00,,---,0.00,VWS V14.01,2013-02-20 21:50:00,
2013-02-20 15:55:00,76.5,51.0,26.99,SE,146,13.2,13.2,32,0.00,,---,0.00,VWS V14.01,2013-02-20 21:55:00,
2013-02-20 16:00:00,76.5,51.0,26.99,SE,139,6.3,12.8,32,0.00,,---,0.00,VWS V14.01,2013-02-20 22:00:00,
2013-02-20 16:05:00,76.5,51.0,26.99,NE,50,12.8,12.8,32,0.00,,---,0.00,VWS V14.01,2013-02-20 22:05:00,
2013-02-20 16:10:00,76.5,51.0,26.99,SE,135,11.0,11.0,32,0.00,,---,0.00,VWS V14.01,2013-02-20 22:10:00,
2013-02-20 16:15:00,76.5,51.0,26.99,ESE,119,11.0,11.0,32,0.00,,---,0.00,VWS V14.01,2013-02-20 22:15:00,
2013-02-20 16:20:00,76.5,51.0,26.99,ESE,103,6.3,7.6,32,0.00,,---,0.00,VWS V14.01,2013-02-20 22:20:00,
2013-02-20 16:25:00,76.5,51.0,26.99,East,101,7.2,8.3,32,0.00,,---,0.00,VWS V14.01,2013-02-20 22:25:00,
2013-02-20 16:30:00,76.5,51.0,26.99,ESE,107,6.3,15.0,32,0.00,,---,0.00,VWS V14.01,2013-02-20 22:30:00,
2013-02-20 16:35:00,76.5,51.0,26.99,SSE,155,5.8,8.7,32,0.00,,---,0.00,VWS V14.01,2013-02-20 22:35:00,
2013-02-20 16:40:00,76.5,51.0,26.99,SE,143,8.7,8.7,32,0.00,,---,0.00,VWS V14.01,2013-02-20 22:40:00,
2013-02-20 16:45:00,76.5,51.0,26.99,SSE,149,5.4,6.3,32,0.00,,---,0.00,VWS V14.01,2013-02-20 22:45:00,
2013-02-20 16:50:00,76.5,51.0,26.99,SSE,152,4.0,5.8,32,0.00,,---,0.00,VWS V14.01,2013-02-20 22:50:00,
2013-02-20 16:55:00,76.5,51.0,26.99,SE,132,4.9,6.3,32,0.00,,---,0.00,VWS V14.01,2013-02-20 22:55:00,
2013-02-20 17:00:00,76.5,51.0,26.99,SE,124,7.6,7.6,32,0.00,,---,0.00,VWS V14.01,2013-02-20 23:00:00,
2013-02-20 17:05:00,76.5,51.0,26.99,SE,136,7.6,7.6,32,0.00,,---,0.00,VWS V14.01,2013-02-20 23:05:00,
2013-02-20 17:10:00,76.5,51.0,26.99,East,97,6.3,8.7,32,0.00,,---,0.00,VWS V14.01,2013-02-20 23:10:00,
2013-02-20 17:15:00,76.5,51.0,26.99,SSE,158,5.8,8.3,32,0.00,,---,0.00,VWS V14.01,2013-02-20 23:15:00,
2013-02-20 17:20:00,76.5,51.0,26.99,SE,144,12.8,15.4,32,0.00,,---,0.00,VWS V14.01,2013-02-20 23:20:00,
2013-02-20 17:25:00,76.5,51.0,27.02,East,88,6.3,8.7,32,0.00,,---,0.00,VWS V14.01,2013-02-20 23:25:00,
2013-02-20 17:30:00,76.5,51.0,27.02,SE,133,11.0,11.0,32,0.00,,---,0.00,VWS V14.01,2013-02-20 23:30:00,
2013-02-20 17:35:00,76.5,51.0,27.02,East,91,8.7,10.5,32,0.00,,---,0.00,VWS V14.01,2013-02-20 23:35:00,
2013-02-20 17:40:00,76.5,51.0,26.99,ESE,113,8.3,8.3,32,0.00,,---,0.00,VWS V14.01,2013-02-20 23:40:00,
2013-02-20 17:45:00,76.5,51.0,26.99,ESE,117,6.3,8.1,32,0.00,,---,0.00,VWS V14.01,2013-02-20 23:45:00,
2013-02-20 17:50:00,76.5,51.0,26.99,SE,135,7.2,12.8,32,0.00,,---,0.00,VWS V14.01,2013-02-20 23:50:00,
2013-02-20 17:55:00,76.5,51.0,27.02,East,94,8.3,9.2,32,0.00,,---,0.00,VWS V14.01,2013-02-20 23:55:00,
2013-02-20 18:00:00,76.5,51.0,27.02,ESE,112,5.8,8.7,32,0.00,,---,0.00,VWS V14.01,2013-02-21 00:00:00,
2013-02-20 18:05:00,76.5,51.0,27.02,East,93,8.3,11.0,32,0.00,,---,0.00,VWS V14.01,2013-02-21 00:05:00,
2013-02-20 18:10:00,76.5,51.0,27.02,SSE,153,9.6,10.5,32,0.00,,---,0.00,VWS V14.01,2013-02-21 00:10:00,
2013-02-20 18:15:00,76.5,51.0,27.02,ESE,117,8.7,10.1,32,0.00,,---,0.00,VWS V14.01,2013-02-21 00:15:00,
2013-02-20 18:20:00,76.5,51.0,27.02,ESE,118,5.8,11.0,32,0.00,,---,0.00,VWS V14.01,2013-02-21 00:20:00,
2013-02-20 18:25:00,76.5,51.0,27.02,ESE,112,13.2,13.2,32,0.00,,---,0.00,VWS V14.01,2013-02-21 00:25:00,
2013-02-20 18:30:00,76.5,51.0,27.02,ESE,110,8.1,8.1,32,0.00,,---,0.00,VWS V14.01,2013-02-21 00:30:00,
2013-02-20 18:35:00,76.5,51.0,27.02,ESE,115,5.8,7.6,32,0.00,,---,0.00,VWS V14.01,2013-02-21 00:35:00,
2013-02-20 18:40:00,76.5,51.0,27.02,ESE,112,7.6,11.9,32,0.00,,---,0.00,VWS V14.01,2013-02-21 00:40:00,
2013-02-20 18:45:00,76.5,51.0,27.02,East,92,8.1,8.1,32,0.00,,---,0.00,VWS V14.01,2013-02-21 00:45:00,
2013-02-20 18:50:00,76.5,51.0,27.02,East,98,17.4,17.4,32,0.00,,---,0.00,VWS V14.01,2013-02-21 00:50:00,
2013-02-20 18:55:00,76.5,51.0,27.02,East,97,9.6,10.1,32,0.00,,---,0.00,VWS V14.01,2013-02-21 00:55:00,
2013-02-20 19:00:00,76.5,51.0,27.02,SE,130,6.7,11.0,32,0.00,,---,0.00,VWS V14.01,2013-02-21 01:00:00,
2013-02-20 19:05:00,76.5,51.0,27.02,East,97,4.9,15.0,32,0.00,,---,0.00,VWS V14.01,2013-02-21 01:05:00,
2013-02-20 19:10:00,76.5,51.0,27.02,SSE,156,13.2,13.2,32,0.00,,---,0.00,VWS V14.01,2013-02-21 01:10:00,
2013-02-20 19:15:00,76.5,51.0,27.02,East,92,13.2,13.2,32,0.00,,---,0.00,VWS V14.01,2013-02-21 01:15:00,
2013-02-20 19:20:00,76.5,51.0,27.02,ESE,102,10.1,10.1,32,0.00,,---,0.00,VWS V14.01,2013-02-21 01:20:00,
2013-02-20 19:25:00,76.5,51.0,27.02,SE,143,7.2,10.5,32,0.00,,---,0.00,VWS V14.01,2013-02-21 01:25:00,
2013-02-20 19:30:00,76.5,51.0,27.02,ESE,120,8.3,11.0,32,0.00,,---,0.00,VWS V14.01,2013-02-21 01:30:00,
2013-02-20 19:35:00,76.5,51.0,27.02,East,95,8.3,10.1,32,0.00,,---,0.00,VWS V14.01,2013-02-21 01:35:00,
2013-02-20 19:40:00,76.5,51.0,27.05,East,91,10.1,10.1,32,0.00,,---,0.00,VWS V14.01,2013-02-21 01:40:00,
2013-02-20 19:44:00,76.5,51.0,27.05,SE,129,8.3,8.3,32,0.00,,---,0.00,VWS V14.01,2013-02-21 01:44:00,
2013-02-20 19:49:00,76.5,51.0,27.05,ESE,112,5.8,8.3,32,0.00,,---,0.00,VWS V14.01,2013-02-21 01:49:00,
2013-02-20 19:54:00,76.5,51.0,27.05,ESE,107,8.7,8.7,32,0.00,,---,0.00,VWS V14.01,2013-02-21 01:54:00,
2013-02-20 19:59:00,76.5,51.0,27.05,SE,129,10.1,10.1,32,0.00,,---,0.00,VWS V14.01,2013-02-21 01:59:00,
2013-02-20 20:04:00,76.5,51.0,27.05,SE,129,8.3,8.3,32,0.00,,---,0.00,VWS V14.01,2013-02-21 02:04:00,
2013-02-20 20:09:00,76.5,51.0,27.05,South,169,10.1,13.2,32,0.00,,---,0.00,VWS V14.01,2013-02-21 02:09:00,
2013-02-20 20:14:00,76.5,51.0,27.05,SE,135,12.8,12.8,32,0.00,,---,0.00,VWS V14.01,2013-02-21 02:14:00,
2013-02-20 20:19:00,76.5,51.0,27.05,SE,133,13.2,13.2,32,0.00,,---,0.00,VWS V14.01,2013-02-21 02:19:00,
2013-02-20 20:24:00,76.5,51.0,27.05,SE,130,7.6,7.6,32,0.00,,---,0.00,VWS V14.01,2013-02-21 02:24:00,
2013-02-20 20:29:00,76.5,51.0,27.05,SE,133,7.6,7.6,32,0.00,,---,0.00,VWS V14.01,2013-02-21 02:29:00,
2013-02-20 20:34:00,76.5,51.0,27.05,SE,138,8.3,12.3,32,0.00,,---,0.00,VWS V14.01,2013-02-21 02:34:00,
2013-02-20 20:39:00,76.5,51.0,27.05,ESE,105,10.1,10.1,32,0.00,,---,0.00,VWS V14.01,2013-02-21 02:39:00,
2013-02-20 20:44:00,76.5,51.0,27.05,SSE,150,6.3,8.3,32,0.00,,---,0.00,VWS V14.01,2013-02-21 02:44:00,
2013-02-20 20:49:00,76.5,51.0,27.05,SE,128,5.8,13.2,32,0.00,,---,0.00,VWS V14.01,2013-02-21 02:49:00,
2013-02-20 20:54:00,76.5,51.0,27.05,SE,142,4.9,10.1,32,0.00,,---,0.00,VWS V14.01,2013-02-21 02:54:00,
2013-02-20 20:59:00,76.5,51.0,27.05,ESE,105,8.1,8.1,32,0.00,,---,0.00,VWS V14.01,2013-02-21 02:59:00,
2013-02-20 21:04:00,76.5,51.0,27.05,SSE,167,15.9,15.9,32,0.00,,---,0.00,VWS V14.01,2013-02-21 03:04:00,
2013-02-20 21:09:00,76.5,51.0,27.05,SE,130,6.7,6.7,32,0.00,,---,0.00,VWS V14.01,2013-02-21 03:09:00,
2013-02-20 21:14:00,76.5,51.0,27.05,SSE,154,5.4,12.8,32,0.00,,---,0.00,VWS V14.01,2013-02-21 03:14:00,
2013-02-20 21:19:00,76.5,51.0,27.05,ENE,63,5.4,8.1,32,0.00,,---,0.00,VWS V14.01,2013-02-21 03:19:00,
2013-02-20 21:24:00,76.5,51.0,27.05,East,95,10.5,10.5,32,0.00,,---,0.00,VWS V14.01,2013-02-21 03:24:00,
2013-02-20 21:29:00,76.5,51.0,27.05,SE,140,10.1,10.1,32,0.00,,---,0.00,VWS V14.01,2013-02-21 03:29:00,
2013-02-20 21:34:00,76.5,51.0,27.05,ESE,110,5.4,8.1,32,0.00,,---,0.00,VWS V14.01,2013-02-21 03:34:00,
2013-02-20 21:39:00,76.5,51.0,27.05,SE,124,8.3,9.6,32,0.00,,---,0.00,VWS V14.01,2013-02-21 03:39:00,
2013-02-20 21:44:00,76.5,51.0,27.05,East,84,15.0,15.0,32,0.00,,---,0.00,VWS V14.01,2013-02-21 03:44:00,
2013-02-20 21:49:00,76.5,51.0,27.05,ESE,111,6.3,12.3,32,0.00,,---,0.00,VWS V14.01,2013-02-21 03:49:00,
2013-02-20 21:54:00,76.5,51.0,27.05,ESE,112,5.4,8.3,32,0.00,,---,0.00,VWS V14.01,2013-02-21 03:54:00,
2013-02-20 21:59:00,76.5,51.0,27.05,ESE,120,7.6,13.2,32,0.00,,---,0.00,VWS V14.01,2013-02-21 03:59:00,
2013-02-20 22:04:00,76.5,51.0,27.05,SE,132,12.3,12.3,32,0.00,,---,0.00,VWS V14.01,2013-02-21 04:04:00,
2013-02-20 22:09:00,76.5,51.0,27.05,SE,131,12.8,12.8,32,0.00,,---,0.00,VWS V14.01,2013-02-21 04:09:00,
2013-02-20 22:14:00,76.5,51.0,27.05,ESE,106,8.1,13.2,32,0.00,,---,0.00,VWS V14.01,2013-02-21 04:14:00,
2013-02-20 22:19:00,76.5,51.0,27.05,SSE,153,5.8,10.5,32,0.00,,---,0.00,VWS V14.01,2013-02-21 04:19:00,
2013-02-20 22:24:00,76.5,51.0,27.05,ESE,105,11.0,14.5,32,0.00,,---,0.00,VWS V14.01,2013-02-21 04:24:00,
2013-02-20 22:29:00,76.5,51.0,27.05,SSE,147,7.6,7.6,32,0.00,,---,0.00,VWS V14.01,2013-02-21 04:29:00,
2013-02-20 22:34:00,76.5,51.0,27.05,SSE,153,8.3,8.3,32,0.00,,---,0.00,VWS V14.01,2013-02-21 04:34:00,
2013-02-20 22:39:00,76.5,51.0,27.05,SE,132,6.3,8.3,32,0.00,,---,0.00,VWS V14.01,2013-02-21 04:39:00,
2013-02-20 22:44:00,76.5,51.0,27.05,East,85,6.3,8.7,32,0.00,,---,0.00,VWS V14.01,2013-02-21 04:44:00,
2013-02-20 22:49:00,76.5,51.0,27.05,ENE,77,10.1,10.1,32,0.00,,---,0.00,VWS V14.01,2013-02-21 04:49:00,
2013-02-20 22:54:00,76.5,51.0,27.05,SE,146,8.3,15.4,32,0.00,,---,0.00,VWS V14.01,2013-02-21 04:54:00,
2013-02-20 22:59:00,76.5,51.0,27.05,East,97,8.7,12.8,32,0.00,,---,0.00,VWS V14.01,2013-02-21 04:59:00,
2013-02-20 23:00:00,76.5,51.0,27.05,SE,140,15.4,15.4,32,0.00,,---,0.00,VWS V14.01,2013-02-21 05:00:00,
2013-02-20 23:05:00,76.5,51.0,27.05,ESE,114,5.8,13.2,32,0.00,,---,0.00,VWS V14.01,2013-02-21 05:05:00,
2013-02-20 23:10:00,76.5,51.0,27.05,SE,137,8.1,8.1,32,0.00,,---,0.00,VWS V14.01,2013-02-21 05:10:00,
2013-02-20 23:15:00,76.5,51.0,27.05,East,92,5.8,8.1,32,0.00,,---,0.00,VWS V14.01,2013-02-21 05:15:00,
2013-02-20 23:20:00,76.5,51.0,27.05,SE,126,8.1,8.1,32,0.00,,---,0.00,VWS V14.01,2013-02-21 05:20:00,
2013-02-20 23:25:00,76.5,51.0,27.02,SSW,201,5.4,5.4,32,0.00,,---,0.00,VWS V14.01,2013-02-21 05:25:00,
2013-02-20 23:30:00,76.5,51.0,27.02,ESE,121,5.4,20.6,32,0.00,,---,0.00,VWS V14.01,2013-02-21 05:30:00,
2013-02-20 23:35:00,76.5,51.0,27.02,East,95,8.3,10.5,32,0.00,,---,0.00,VWS V14.01,2013-02-21 05:35:00,
2013-02-20 23:40:00,76.5,51.0,27.02,SSE,153,10.5,10.5,32,0.00,,---,0.00,VWS V14.01,2013-02-21 05:40:00,
2013-02-20 23:45:00,76.5,51.0,27.02,South,183,5.4,5.8,32,0.00,,---,0.00,VWS V14.01,2013-02-21 05:45:00,
2013-02-20 23:50:00,76.5,51.0,27.02,ESE,110,6.3,11.0,32,0.00,,---,0.00,VWS V14.01,2013-02-21 05:50:00,
2013-02-20 23:55:00,76.5,51.0,27.02,ESE,117,9.2,9.2,32,0.00,,---,0.00,VWS V14.01,2013-02-21 05:55:00,